sensor_id;sensor_type;location;lat;lon;timestamp;P1;durP1;ratioP1;P2;durP2;ratioP2
55330;SDS011;58851;42.984;20.336;2023-04-25T00:01:20;34.42;;;23.27;;
55330;SDS011;58851;42.984;20.336;2023-04-25T00:03:49;35.95;;;20.02;;
55330;SDS011;58851;42.984;20.336;2023-04-25T00:06:15;26.88;;;18.42;;
55330;SDS011;58851;42.984;20.336;2023-04-25T00:08:42;28.20;;;17.77;;
55330;SDS011;58851;42.984;20.336;2023-04-25T00:11:08;29.73;;;19.08;;
55330;SDS011;58851;42.984;20.336;2023-04-25T00:13:34;27.75;;;19.83;;
55330;SDS011;58851;42.984;20.336;2023-04-25T00:16:00;29.70;;;17.77;;
55330;SDS011;58851;42.984;20.336;2023-04-25T00:18:27;36.40;;;21.77;;
55330;SDS011;58851;42.984;20.336;2023-04-25T00:20:54;36.90;;;22.10;;
55330;SDS011;58851;42.984;20.336;2023-04-25T00:23:20;38.70;;;24.80;;
55330;SDS011;58851;42.984;20.336;2023-04-25T00:25:48;48.05;;;28.58;;
55330;SDS011;58851;42.984;20.336;2023-04-25T00:28:15;37.75;;;23.70;;
55330;SDS011;58851;42.984;20.336;2023-04-25T00:30:41;41.15;;;25.60;;
55330;SDS011;58851;42.984;20.336;2023-04-25T00:33:08;36.53;;;24.27;;
55330;SDS011;58851;42.984;20.336;2023-04-25T00:35:34;36.80;;;22.38;;
55330;SDS011;58851;42.984;20.336;2023-04-25T00:38:01;31.50;;;20.52;;
55330;SDS011;58851;42.984;20.336;2023-04-25T00:40:26;32.10;;;19.55;;
55330;SDS011;58851;42.984;20.336;2023-04-25T00:42:53;36.22;;;19.70;;
55330;SDS011;58851;42.984;20.336;2023-04-25T00:45:19;28.15;;;18.48;;
55330;SDS011;58851;42.984;20.336;2023-04-25T00:47:45;27.85;;;18.60;;
55330;SDS011;58851;42.984;20.336;2023-04-25T00:50:12;35.78;;;19.90;;
55330;SDS011;58851;42.984;20.336;2023-04-25T00:52:40;19.77;;;12.32;;
55330;SDS011;58851;42.984;20.336;2023-04-25T00:55:08;25.95;;;14.95;;
55330;SDS011;58851;42.984;20.336;2023-04-25T00:57:35;25.38;;;16.95;;
55330;SDS011;58851;42.984;20.336;2023-04-25T01:00:02;47.58;;;30.92;;
55330;SDS011;58851;42.984;20.336;2023-04-25T01:02:30;41.63;;;26.65;;
55330;SDS011;58851;42.984;20.336;2023-04-25T01:04:58;39.35;;;27.02;;
55330;SDS011;58851;42.984;20.336;2023-04-25T01:07:24;27.10;;;17.88;;
55330;SDS011;58851;42.984;20.336;2023-04-25T01:09:51;29.98;;;18.90;;
55330;SDS011;58851;42.984;20.336;2023-04-25T01:12:17;32.65;;;19.48;;
55330;SDS011;58851;42.984;20.336;2023-04-25T01:14:43;29.33;;;20.70;;
55330;SDS011;58851;42.984;20.336;2023-04-25T01:17:10;32.08;;;20.27;;
55330;SDS011;58851;42.984;20.336;2023-04-25T01:19:36;31.83;;;19.23;;
55330;SDS011;58851;42.984;20.336;2023-04-25T01:22:02;28.88;;;19.42;;
55330;SDS011;58851;42.984;20.336;2023-04-25T01:24:29;31.95;;;20.38;;
55330;SDS011;58851;42.984;20.336;2023-04-25T01:26:56;28.58;;;20.90;;
55330;SDS011;58851;42.984;20.336;2023-04-25T01:29:24;46.97;;;29.05;;
55330;SDS011;58851;42.984;20.336;2023-04-25T01:31:51;33.85;;;21.85;;
55330;SDS011;58851;42.984;20.336;2023-04-25T01:34:17;27.60;;;16.13;;
55330;SDS011;58851;42.984;20.336;2023-04-25T01:36:43;25.88;;;14.70;;
55330;SDS011;58851;42.984;20.336;2023-04-25T01:39:09;18.02;;;10.38;;
55330;SDS011;58851;42.984;20.336;2023-04-25T01:41:35;18.55;;;11.35;;
55330;SDS011;58851;42.984;20.336;2023-04-25T01:44:02;15.18;;;8.20;;
55330;SDS011;58851;42.984;20.336;2023-04-25T01:46:28;14.15;;;9.43;;
55330;SDS011;58851;42.984;20.336;2023-04-25T01:48:54;16.45;;;9.23;;
55330;SDS011;58851;42.984;20.336;2023-04-25T01:51:20;15.57;;;8.82;;
55330;SDS011;58851;42.984;20.336;2023-04-25T01:53:46;15.75;;;10.50;;
55330;SDS011;58851;42.984;20.336;2023-04-25T01:56:12;20.52;;;13.15;;
55330;SDS011;58851;42.984;20.336;2023-04-25T01:58:38;20.50;;;11.80;;
55330;SDS011;58851;42.984;20.336;2023-04-25T02:01:03;22.25;;;12.00;;
55330;SDS011;58851;42.984;20.336;2023-04-25T02:03:30;18.33;;;12.60;;
55330;SDS011;58851;42.984;20.336;2023-04-25T02:05:57;23.20;;;11.52;;
55330;SDS011;58851;42.984;20.336;2023-04-25T02:08:23;21.98;;;13.55;;
55330;SDS011;58851;42.984;20.336;2023-04-25T02:10:50;20.27;;;12.38;;
55330;SDS011;58851;42.984;20.336;2023-04-25T02:13:16;20.08;;;12.00;;
55330;SDS011;58851;42.984;20.336;2023-04-25T02:15:42;20.10;;;11.50;;
55330;SDS011;58851;42.984;20.336;2023-04-25T02:18:08;19.75;;;13.02;;
55330;SDS011;58851;42.984;20.336;2023-04-25T02:20:35;24.63;;;15.23;;
55330;SDS011;58851;42.984;20.336;2023-04-25T02:23:01;19.52;;;13.95;;
55330;SDS011;58851;42.984;20.336;2023-04-25T02:25:27;20.70;;;14.20;;
55330;SDS011;58851;42.984;20.336;2023-04-25T02:27:53;16.88;;;11.73;;
55330;SDS011;58851;42.984;20.336;2023-04-25T02:30:19;19.02;;;12.13;;
55330;SDS011;58851;42.984;20.336;2023-04-25T02:32:45;16.80;;;10.32;;
55330;SDS011;58851;42.984;20.336;2023-04-25T02:35:11;16.98;;;10.95;;
55330;SDS011;58851;42.984;20.336;2023-04-25T02:37:38;14.07;;;9.05;;
55330;SDS011;58851;42.984;20.336;2023-04-25T02:40:05;12.15;;;8.55;;
55330;SDS011;58851;42.984;20.336;2023-04-25T02:42:31;11.48;;;6.60;;
55330;SDS011;58851;42.984;20.336;2023-04-25T02:44:57;9.65;;;7.13;;
55330;SDS011;58851;42.984;20.336;2023-04-25T02:47:23;11.02;;;6.15;;
55330;SDS011;58851;42.984;20.336;2023-04-25T02:49:49;12.90;;;7.90;;
55330;SDS011;58851;42.984;20.336;2023-04-25T02:52:15;17.58;;;9.80;;
55330;SDS011;58851;42.984;20.336;2023-04-25T02:54:41;17.17;;;11.48;;
55330;SDS011;58851;42.984;20.336;2023-04-25T02:57:07;21.27;;;12.02;;
55330;SDS011;58851;42.984;20.336;2023-04-25T02:59:33;14.80;;;10.32;;
55330;SDS011;58851;42.984;20.336;2023-04-25T03:01:59;22.00;;;13.30;;
55330;SDS011;58851;42.984;20.336;2023-04-25T03:04:25;23.52;;;13.07;;
55330;SDS011;58851;42.984;20.336;2023-04-25T03:06:51;20.58;;;13.75;;
55330;SDS011;58851;42.984;20.336;2023-04-25T03:09:17;21.50;;;12.73;;
55330;SDS011;58851;42.984;20.336;2023-04-25T03:11:43;17.48;;;13.40;;
55330;SDS011;58851;42.984;20.336;2023-04-25T03:14:10;19.00;;;12.63;;
55330;SDS011;58851;42.984;20.336;2023-04-25T03:16:36;16.42;;;11.68;;
55330;SDS011;58851;42.984;20.336;2023-04-25T03:19:02;18.33;;;12.52;;
55330;SDS011;58851;42.984;20.336;2023-04-25T03:21:29;19.38;;;12.65;;
55330;SDS011;58851;42.984;20.336;2023-04-25T03:23:57;20.80;;;13.35;;
55330;SDS011;58851;42.984;20.336;2023-04-25T03:26:23;23.52;;;17.02;;
55330;SDS011;58851;42.984;20.336;2023-04-25T03:28:49;25.83;;;16.65;;
55330;SDS011;58851;42.984;20.336;2023-04-25T03:31:15;32.58;;;18.80;;
55330;SDS011;58851;42.984;20.336;2023-04-25T03:33:41;30.35;;;19.17;;
55330;SDS011;58851;42.984;20.336;2023-04-25T03:36:07;24.40;;;17.02;;
55330;SDS011;58851;42.984;20.336;2023-04-25T03:38:33;26.83;;;18.13;;
55330;SDS011;58851;42.984;20.336;2023-04-25T03:40:59;27.40;;;17.13;;
55330;SDS011;58851;42.984;20.336;2023-04-25T03:43:25;24.42;;;16.95;;
55330;SDS011;58851;42.984;20.336;2023-04-25T03:45:51;25.75;;;18.90;;
55330;SDS011;58851;42.984;20.336;2023-04-25T03:48:17;104.75;;;65.43;;
55330;SDS011;58851;42.984;20.336;2023-04-25T03:50:44;85.07;;;53.20;;
55330;SDS011;58851;42.984;20.336;2023-04-25T03:53:10;236.48;;;154.30;;
55330;SDS011;58851;42.984;20.336;2023-04-25T03:55:35;116.45;;;71.57;;
55330;SDS011;58851;42.984;20.336;2023-04-25T03:58:01;74.82;;;46.05;;
55330;SDS011;58851;42.984;20.336;2023-04-25T04:00:27;58.95;;;39.58;;
55330;SDS011;58851;42.984;20.336;2023-04-25T04:02:53;55.03;;;33.78;;
55330;SDS011;58851;42.984;20.336;2023-04-25T04:05:19;60.47;;;35.15;;
55330;SDS011;58851;42.984;20.336;2023-04-25T04:07:45;53.10;;;33.35;;
55330;SDS011;58851;42.984;20.336;2023-04-25T04:10:11;36.72;;;24.60;;
55330;SDS011;58851;42.984;20.336;2023-04-25T04:12:37;47.10;;;34.38;;
55330;SDS011;58851;42.984;20.336;2023-04-25T04:15:04;38.33;;;27.35;;
55330;SDS011;58851;42.984;20.336;2023-04-25T04:17:30;34.17;;;24.77;;
55330;SDS011;58851;42.984;20.336;2023-04-25T04:19:57;30.35;;;24.13;;
55330;SDS011;58851;42.984;20.336;2023-04-25T04:22:23;34.17;;;25.83;;
55330;SDS011;58851;42.984;20.336;2023-04-25T04:24:49;35.33;;;24.90;;
55330;SDS011;58851;42.984;20.336;2023-04-25T04:27:18;45.08;;;28.02;;
55330;SDS011;58851;42.984;20.336;2023-04-25T04:29:45;54.25;;;27.60;;
55330;SDS011;58851;42.984;20.336;2023-04-25T04:32:11;36.70;;;19.55;;
55330;SDS011;58851;42.984;20.336;2023-04-25T04:34:38;42.55;;;24.70;;
55330;SDS011;58851;42.984;20.336;2023-04-25T04:37:04;45.17;;;24.92;;
55330;SDS011;58851;42.984;20.336;2023-04-25T04:39:32;40.65;;;22.63;;
55330;SDS011;58851;42.984;20.336;2023-04-25T04:41:58;63.00;;;31.73;;
55330;SDS011;58851;42.984;20.336;2023-04-25T04:44:26;69.72;;;34.75;;
55330;SDS011;58851;42.984;20.336;2023-04-25T04:46:53;69.03;;;36.50;;
55330;SDS011;58851;42.984;20.336;2023-04-25T04:49:19;75.32;;;39.42;;
55330;SDS011;58851;42.984;20.336;2023-04-25T04:51:46;63.97;;;37.85;;
55330;SDS011;58851;42.984;20.336;2023-04-25T04:54:12;69.28;;;38.13;;
55330;SDS011;58851;42.984;20.336;2023-04-25T04:56:38;75.50;;;37.75;;
55330;SDS011;58851;42.984;20.336;2023-04-25T04:59:04;50.97;;;30.80;;
55330;SDS011;58851;42.984;20.336;2023-04-25T05:01:30;51.45;;;31.58;;
55330;SDS011;58851;42.984;20.336;2023-04-25T05:03:56;49.15;;;27.88;;
55330;SDS011;58851;42.984;20.336;2023-04-25T05:06:25;50.13;;;29.00;;
55330;SDS011;58851;42.984;20.336;2023-04-25T05:08:53;52.53;;;31.65;;
55330;SDS011;58851;42.984;20.336;2023-04-25T05:11:19;53.35;;;33.33;;
55330;SDS011;58851;42.984;20.336;2023-04-25T05:13:46;60.13;;;34.70;;
55330;SDS011;58851;42.984;20.336;2023-04-25T05:16:12;58.17;;;33.35;;
55330;SDS011;58851;42.984;20.336;2023-04-25T05:18:39;56.08;;;33.13;;
55330;SDS011;58851;42.984;20.336;2023-04-25T05:21:05;60.58;;;33.65;;
55330;SDS011;58851;42.984;20.336;2023-04-25T05:23:32;58.05;;;34.42;;
55330;SDS011;58851;42.984;20.336;2023-04-25T05:25:58;62.22;;;36.95;;
55330;SDS011;58851;42.984;20.336;2023-04-25T05:28:24;56.30;;;34.45;;
55330;SDS011;58851;42.984;20.336;2023-04-25T05:30:50;53.83;;;35.45;;
55330;SDS011;58851;42.984;20.336;2023-04-25T05:33:16;63.75;;;38.10;;
55330;SDS011;58851;42.984;20.336;2023-04-25T05:35:42;63.72;;;36.42;;
55330;SDS011;58851;42.984;20.336;2023-04-25T05:38:08;65.57;;;38.30;;
55330;SDS011;58851;42.984;20.336;2023-04-25T05:40:34;57.08;;;32.13;;
55330;SDS011;58851;42.984;20.336;2023-04-25T05:42:59;57.03;;;37.60;;
55330;SDS011;58851;42.984;20.336;2023-04-25T05:45:25;68.97;;;44.25;;
55330;SDS011;58851;42.984;20.336;2023-04-25T05:47:51;63.08;;;40.33;;
55330;SDS011;58851;42.984;20.336;2023-04-25T05:50:17;61.53;;;37.10;;
55330;SDS011;58851;42.984;20.336;2023-04-25T05:52:43;51.88;;;31.35;;
55330;SDS011;58851;42.984;20.336;2023-04-25T05:55:09;51.17;;;30.60;;
55330;SDS011;58851;42.984;20.336;2023-04-25T05:57:34;50.17;;;31.10;;
55330;SDS011;58851;42.984;20.336;2023-04-25T06:00:00;56.60;;;36.28;;
55330;SDS011;58851;42.984;20.336;2023-04-25T06:02:26;70.18;;;44.00;;
55330;SDS011;58851;42.984;20.336;2023-04-25T06:04:52;87.43;;;58.15;;
55330;SDS011;58851;42.984;20.336;2023-04-25T06:07:21;91.63;;;57.78;;
55330;SDS011;58851;42.984;20.336;2023-04-25T06:09:47;94.05;;;56.20;;
55330;SDS011;58851;42.984;20.336;2023-04-25T06:12:13;89.18;;;60.08;;
55330;SDS011;58851;42.984;20.336;2023-04-25T06:14:38;118.25;;;83.70;;
55330;SDS011;58851;42.984;20.336;2023-04-25T06:17:04;117.03;;;81.50;;
55330;SDS011;58851;42.984;20.336;2023-04-25T06:19:33;108.35;;;70.47;;
55330;SDS011;58851;42.984;20.336;2023-04-25T06:22:00;102.95;;;70.80;;
55330;SDS011;58851;42.984;20.336;2023-04-25T06:24:26;106.78;;;69.28;;
55330;SDS011;58851;42.984;20.336;2023-04-25T06:26:52;108.90;;;69.15;;
55330;SDS011;58851;42.984;20.336;2023-04-25T06:29:18;109.55;;;69.50;;
55330;SDS011;58851;42.984;20.336;2023-04-25T06:31:45;115.20;;;73.15;;
55330;SDS011;58851;42.984;20.336;2023-04-25T06:34:10;109.22;;;69.85;;
55330;SDS011;58851;42.984;20.336;2023-04-25T06:36:36;107.68;;;75.32;;
55330;SDS011;58851;42.984;20.336;2023-04-25T06:39:02;105.20;;;74.57;;
55330;SDS011;58851;42.984;20.336;2023-04-25T06:41:28;95.05;;;69.25;;
55330;SDS011;58851;42.984;20.336;2023-04-25T06:43:54;99.90;;;65.35;;
55330;SDS011;58851;42.984;20.336;2023-04-25T06:46:20;93.10;;;65.68;;
55330;SDS011;58851;42.984;20.336;2023-04-25T06:48:45;88.30;;;64.65;;
55330;SDS011;58851;42.984;20.336;2023-04-25T06:51:11;91.25;;;62.70;;
55330;SDS011;58851;42.984;20.336;2023-04-25T06:53:38;83.22;;;59.58;;
55330;SDS011;58851;42.984;20.336;2023-04-25T06:56:05;73.13;;;52.08;;
55330;SDS011;58851;42.984;20.336;2023-04-25T06:58:31;30.23;;;20.75;;
55330;SDS011;58851;42.984;20.336;2023-04-25T07:00:57;34.17;;;24.00;;
55330;SDS011;58851;42.984;20.336;2023-04-25T07:03:22;14.20;;;9.80;;
55330;SDS011;58851;42.984;20.336;2023-04-25T07:05:49;14.00;;;8.50;;
55330;SDS011;58851;42.984;20.336;2023-04-25T07:08:15;13.10;;;10.40;;
55330;SDS011;58851;42.984;20.336;2023-04-25T07:10:41;12.88;;;9.25;;
55330;SDS011;58851;42.984;20.336;2023-04-25T07:13:07;15.90;;;11.40;;
55330;SDS011;58851;42.984;20.336;2023-04-25T07:15:33;15.80;;;11.25;;
55330;SDS011;58851;42.984;20.336;2023-04-25T07:17:59;19.58;;;12.88;;
55330;SDS011;58851;42.984;20.336;2023-04-25T07:20:25;9.95;;;6.80;;
55330;SDS011;58851;42.984;20.336;2023-04-25T07:22:52;14.80;;;11.38;;
55330;SDS011;58851;42.984;20.336;2023-04-25T07:25:18;8.73;;;6.30;;
55330;SDS011;58851;42.984;20.336;2023-04-25T07:27:45;12.13;;;7.97;;
55330;SDS011;58851;42.984;20.336;2023-04-25T07:30:11;11.48;;;6.93;;
55330;SDS011;58851;42.984;20.336;2023-04-25T07:32:37;8.45;;;5.75;;
55330;SDS011;58851;42.984;20.336;2023-04-25T07:35:04;10.88;;;7.32;;
55330;SDS011;58851;42.984;20.336;2023-04-25T07:37:32;10.73;;;6.68;;
55330;SDS011;58851;42.984;20.336;2023-04-25T07:39:58;10.40;;;8.48;;
55330;SDS011;58851;42.984;20.336;2023-04-25T07:42:24;8.80;;;7.10;;
55330;SDS011;58851;42.984;20.336;2023-04-25T07:44:50;11.75;;;8.77;;
55330;SDS011;58851;42.984;20.336;2023-04-25T07:47:16;8.00;;;6.03;;
55330;SDS011;58851;42.984;20.336;2023-04-25T07:49:44;10.63;;;7.47;;
55330;SDS011;58851;42.984;20.336;2023-04-25T07:52:10;14.13;;;8.07;;
55330;SDS011;58851;42.984;20.336;2023-04-25T07:54:36;7.20;;;4.55;;
55330;SDS011;58851;42.984;20.336;2023-04-25T07:57:02;11.55;;;9.20;;
55330;SDS011;58851;42.984;20.336;2023-04-25T07:59:27;10.00;;;6.55;;
55330;SDS011;58851;42.984;20.336;2023-04-25T08:01:53;7.75;;;5.38;;
55330;SDS011;58851;42.984;20.336;2023-04-25T08:04:19;6.82;;;5.18;;
55330;SDS011;58851;42.984;20.336;2023-04-25T08:06:45;8.85;;;6.20;;
55330;SDS011;58851;42.984;20.336;2023-04-25T08:09:11;13.55;;;9.10;;
55330;SDS011;58851;42.984;20.336;2023-04-25T08:11:37;12.80;;;10.00;;
55330;SDS011;58851;42.984;20.336;2023-04-25T08:14:03;20.48;;;13.77;;
55330;SDS011;58851;42.984;20.336;2023-04-25T08:16:30;24.70;;;15.18;;
55330;SDS011;58851;42.984;20.336;2023-04-25T08:18:55;21.65;;;13.77;;
55330;SDS011;58851;42.984;20.336;2023-04-25T08:21:21;21.00;;;12.65;;
55330;SDS011;58851;42.984;20.336;2023-04-25T08:23:47;20.90;;;13.73;;
55330;SDS011;58851;42.984;20.336;2023-04-25T08:26:13;39.72;;;20.33;;
55330;SDS011;58851;42.984;20.336;2023-04-25T08:28:39;27.88;;;16.05;;
55330;SDS011;58851;42.984;20.336;2023-04-25T08:31:04;15.18;;;10.80;;
55330;SDS011;58851;42.984;20.336;2023-04-25T08:33:30;14.13;;;7.75;;
55330;SDS011;58851;42.984;20.336;2023-04-25T08:35:57;8.77;;;4.80;;
55330;SDS011;58851;42.984;20.336;2023-04-25T08:38:24;7.28;;;5.63;;
55330;SDS011;58851;42.984;20.336;2023-04-25T08:40:50;7.32;;;5.07;;
55330;SDS011;58851;42.984;20.336;2023-04-25T08:43:17;6.82;;;5.03;;
55330;SDS011;58851;42.984;20.336;2023-04-25T08:45:45;6.53;;;4.50;;
55330;SDS011;58851;42.984;20.336;2023-04-25T08:48:11;7.32;;;5.15;;
55330;SDS011;58851;42.984;20.336;2023-04-25T08:50:39;11.90;;;7.60;;
55330;SDS011;58851;42.984;20.336;2023-04-25T08:53:10;7.68;;;5.32;;
55330;SDS011;58851;42.984;20.336;2023-04-25T08:55:43;8.77;;;6.38;;
55330;SDS011;58851;42.984;20.336;2023-04-25T08:58:11;13.52;;;6.00;;
55330;SDS011;58851;42.984;20.336;2023-04-25T09:00:37;9.82;;;6.88;;
55330;SDS011;58851;42.984;20.336;2023-04-25T09:03:04;9.80;;;5.93;;
55330;SDS011;58851;42.984;20.336;2023-04-25T09:05:30;5.45;;;3.72;;
55330;SDS011;58851;42.984;20.336;2023-04-25T09:07:57;11.85;;;6.15;;
55330;SDS011;58851;42.984;20.336;2023-04-25T09:10:23;8.93;;;5.60;;
55330;SDS011;58851;42.984;20.336;2023-04-25T09:13:11;12.63;;;8.90;;
55330;SDS011;58851;42.984;20.336;2023-04-25T09:15:48;9.52;;;7.00;;
55330;SDS011;58851;42.984;20.336;2023-04-25T09:18:26;11.05;;;7.82;;
55330;SDS011;58851;42.984;20.336;2023-04-25T09:20:53;11.82;;;8.65;;
55330;SDS011;58851;42.984;20.336;2023-04-25T09:23:22;11.18;;;7.72;;
55330;SDS011;58851;42.984;20.336;2023-04-25T09:25:50;4.63;;;3.30;;
55330;SDS011;58851;42.984;20.336;2023-04-25T09:28:22;9.90;;;6.88;;
55330;SDS011;58851;42.984;20.336;2023-04-25T09:30:56;12.82;;;9.23;;
55330;SDS011;58851;42.984;20.336;2023-04-25T09:33:30;8.13;;;5.00;;
55330;SDS011;58851;42.984;20.336;2023-04-25T09:36:06;14.63;;;8.98;;
55330;SDS011;58851;42.984;20.336;2023-04-25T09:38:45;4.03;;;2.50;;
55330;SDS011;58851;42.984;20.336;2023-04-25T09:41:11;9.40;;;6.05;;
55330;SDS011;58851;42.984;20.336;2023-04-25T09:43:38;12.52;;;9.43;;
55330;SDS011;58851;42.984;20.336;2023-04-25T09:46:08;3.45;;;2.17;;
55330;SDS011;58851;42.984;20.336;2023-04-25T09:48:36;5.82;;;3.70;;
55330;SDS011;58851;42.984;20.336;2023-04-25T09:51:12;7.53;;;5.30;;
55330;SDS011;58851;42.984;20.336;2023-04-25T09:53:43;39.22;;;18.85;;
55330;SDS011;58851;42.984;20.336;2023-04-25T09:56:11;9.23;;;4.00;;
55330;SDS011;58851;42.984;20.336;2023-04-25T09:58:38;8.60;;;5.80;;
55330;SDS011;58851;42.984;20.336;2023-04-25T10:01:07;7.78;;;3.80;;
55330;SDS011;58851;42.984;20.336;2023-04-25T10:03:34;8.88;;;4.65;;
55330;SDS011;58851;42.984;20.336;2023-04-25T10:06:08;11.52;;;5.97;;
55330;SDS011;58851;42.984;20.336;2023-04-25T10:08:43;14.45;;;9.07;;
55330;SDS011;58851;42.984;20.336;2023-04-25T10:11:09;15.10;;;8.52;;
55330;SDS011;58851;42.984;20.336;2023-04-25T10:13:35;5.68;;;3.67;;
55330;SDS011;58851;42.984;20.336;2023-04-25T10:16:03;9.52;;;5.82;;
55330;SDS011;58851;42.984;20.336;2023-04-25T10:18:33;9.23;;;3.42;;
55330;SDS011;58851;42.984;20.336;2023-04-25T10:21:01;3.97;;;1.92;;
55330;SDS011;58851;42.984;20.336;2023-04-25T10:23:31;3.72;;;2.20;;
55330;SDS011;58851;42.984;20.336;2023-04-25T10:25:59;7.68;;;4.85;;
55330;SDS011;58851;42.984;20.336;2023-04-25T10:28:25;6.22;;;3.00;;
55330;SDS011;58851;42.984;20.336;2023-04-25T10:31:11;13.05;;;3.70;;
55330;SDS011;58851;42.984;20.336;2023-04-25T10:33:42;9.02;;;4.45;;
55330;SDS011;58851;42.984;20.336;2023-04-25T10:36:09;4.10;;;2.72;;
55330;SDS011;58851;42.984;20.336;2023-04-25T10:38:40;6.25;;;3.42;;
55330;SDS011;58851;42.984;20.336;2023-04-25T10:41:08;5.80;;;2.53;;
55330;SDS011;58851;42.984;20.336;2023-04-25T10:43:42;7.15;;;5.10;;
55330;SDS011;58851;42.984;20.336;2023-04-25T10:48:49;10.82;;;5.82;;
55330;SDS011;58851;42.984;20.336;2023-04-25T10:51:19;7.75;;;5.45;;
55330;SDS011;58851;42.984;20.336;2023-04-25T10:53:57;7.72;;;5.32;;
55330;SDS011;58851;42.984;20.336;2023-04-25T10:56:25;7.97;;;5.80;;
55330;SDS011;58851;42.984;20.336;2023-04-25T10:59:02;13.25;;;7.72;;
55330;SDS011;58851;42.984;20.336;2023-04-25T11:01:41;10.52;;;6.55;;
55330;SDS011;58851;42.984;20.336;2023-04-25T11:04:30;12.98;;;5.78;;
55330;SDS011;58851;42.984;20.336;2023-04-25T11:09:37;6.38;;;3.25;;
55330;SDS011;58851;42.984;20.336;2023-04-25T11:12:06;7.00;;;5.15;;
55330;SDS011;58851;42.984;20.336;2023-04-25T11:14:33;12.27;;;8.23;;
55330;SDS011;58851;42.984;20.336;2023-04-25T11:17:00;15.07;;;9.30;;
55330;SDS011;58851;42.984;20.336;2023-04-25T11:19:27;25.15;;;16.45;;
55330;SDS011;58851;42.984;20.336;2023-04-25T11:21:58;9.70;;;6.22;;
55330;SDS011;58851;42.984;20.336;2023-04-25T11:26:54;13.73;;;8.75;;
55330;SDS011;58851;42.984;20.336;2023-04-25T11:29:25;22.80;;;13.98;;
55330;SDS011;58851;42.984;20.336;2023-04-25T11:31:52;6.43;;;4.38;;
55330;SDS011;58851;42.984;20.336;2023-04-25T11:34:21;8.23;;;5.57;;
55330;SDS011;58851;42.984;20.336;2023-04-25T11:36:47;23.33;;;14.88;;
55330;SDS011;58851;42.984;20.336;2023-04-25T11:39:13;30.45;;;20.35;;
55330;SDS011;58851;42.984;20.336;2023-04-25T11:41:40;14.70;;;8.88;;
55330;SDS011;58851;42.984;20.336;2023-04-25T11:44:07;6.60;;;4.47;;
55330;SDS011;58851;42.984;20.336;2023-04-25T11:46:36;5.10;;;4.03;;
55330;SDS011;58851;42.984;20.336;2023-04-25T11:49:02;5.15;;;3.45;;
55330;SDS011;58851;42.984;20.336;2023-04-25T11:51:29;7.00;;;4.50;;
55330;SDS011;58851;42.984;20.336;2023-04-25T11:53:56;7.07;;;4.30;;
55330;SDS011;58851;42.984;20.336;2023-04-25T11:56:22;6.35;;;4.78;;
55330;SDS011;58851;42.984;20.336;2023-04-25T11:58:57;13.93;;;10.27;;
55330;SDS011;58851;42.984;20.336;2023-04-25T12:01:29;13.27;;;7.60;;
55330;SDS011;58851;42.984;20.336;2023-04-25T12:04:12;8.45;;;6.13;;
55330;SDS011;58851;42.984;20.336;2023-04-25T12:06:40;8.82;;;5.25;;
55330;SDS011;58851;42.984;20.336;2023-04-25T12:09:07;29.85;;;16.27;;
55330;SDS011;58851;42.984;20.336;2023-04-25T12:11:46;10.23;;;6.55;;
55330;SDS011;58851;42.984;20.336;2023-04-25T12:14:23;6.20;;;4.05;;
55330;SDS011;58851;42.984;20.336;2023-04-25T12:16:57;4.65;;;3.53;;
55330;SDS011;58851;42.984;20.336;2023-04-25T12:19:25;15.30;;;11.07;;
55330;SDS011;58851;42.984;20.336;2023-04-25T12:21:51;9.93;;;6.70;;
55330;SDS011;58851;42.984;20.336;2023-04-25T12:24:21;8.35;;;6.07;;
55330;SDS011;58851;42.984;20.336;2023-04-25T12:29:31;8.68;;;6.47;;
55330;SDS011;58851;42.984;20.336;2023-04-25T12:31:58;9.52;;;5.97;;
55330;SDS011;58851;42.984;20.336;2023-04-25T12:34:26;6.13;;;4.18;;
55330;SDS011;58851;42.984;20.336;2023-04-25T12:36:53;6.47;;;4.82;;
55330;SDS011;58851;42.984;20.336;2023-04-25T12:39:20;5.30;;;2.90;;
55330;SDS011;58851;42.984;20.336;2023-04-25T12:41:48;7.35;;;4.82;;
55330;SDS011;58851;42.984;20.336;2023-04-25T12:44:14;12.77;;;11.57;;
55330;SDS011;58851;42.984;20.336;2023-04-25T12:46:41;10.73;;;6.40;;
55330;SDS011;58851;42.984;20.336;2023-04-25T12:49:07;6.88;;;4.45;;
55330;SDS011;58851;42.984;20.336;2023-04-25T12:51:33;5.40;;;3.28;;
55330;SDS011;58851;42.984;20.336;2023-04-25T12:54:00;11.88;;;5.43;;
55330;SDS011;58851;42.984;20.336;2023-04-25T12:56:27;6.53;;;4.38;;
55330;SDS011;58851;42.984;20.336;2023-04-25T12:58:53;12.70;;;5.55;;
55330;SDS011;58851;42.984;20.336;2023-04-25T13:01:20;10.13;;;6.03;;
55330;SDS011;58851;42.984;20.336;2023-04-25T13:03:46;6.60;;;4.80;;
55330;SDS011;58851;42.984;20.336;2023-04-25T13:06:13;9.50;;;8.50;;
55330;SDS011;58851;42.984;20.336;2023-04-25T13:08:41;9.45;;;8.48;;
55330;SDS011;58851;42.984;20.336;2023-04-25T13:11:08;7.25;;;4.78;;
55330;SDS011;58851;42.984;20.336;2023-04-25T13:13:34;14.70;;;10.55;;
55330;SDS011;58851;42.984;20.336;2023-04-25T13:16:03;6.40;;;4.50;;
55330;SDS011;58851;42.984;20.336;2023-04-25T13:18:30;7.65;;;5.10;;
55330;SDS011;58851;42.984;20.336;2023-04-25T13:20:56;9.35;;;5.55;;
55330;SDS011;58851;42.984;20.336;2023-04-25T13:23:24;19.15;;;7.40;;
55330;SDS011;58851;42.984;20.336;2023-04-25T13:25:51;14.10;;;8.07;;
55330;SDS011;58851;42.984;20.336;2023-04-25T13:28:18;6.95;;;3.63;;
55330;SDS011;58851;42.984;20.336;2023-04-25T13:30:44;14.52;;;10.43;;
55330;SDS011;58851;42.984;20.336;2023-04-25T13:33:12;12.48;;;7.90;;
55330;SDS011;58851;42.984;20.336;2023-04-25T13:35:37;23.35;;;12.15;;
55330;SDS011;58851;42.984;20.336;2023-04-25T13:38:03;14.38;;;5.35;;
55330;SDS011;58851;42.984;20.336;2023-04-25T13:40:29;12.15;;;6.38;;
55330;SDS011;58851;42.984;20.336;2023-04-25T13:42:57;9.48;;;5.95;;
55330;SDS011;58851;42.984;20.336;2023-04-25T13:45:23;13.32;;;8.63;;
55330;SDS011;58851;42.984;20.336;2023-04-25T13:47:48;15.63;;;9.07;;
55330;SDS011;58851;42.984;20.336;2023-04-25T13:50:14;9.18;;;5.00;;
55330;SDS011;58851;42.984;20.336;2023-04-25T13:52:41;11.90;;;5.32;;
55330;SDS011;58851;42.984;20.336;2023-04-25T13:55:07;11.88;;;4.32;;
55330;SDS011;58851;42.984;20.336;2023-04-25T13:57:34;8.38;;;5.18;;
55330;SDS011;58851;42.984;20.336;2023-04-25T14:00:01;10.63;;;6.20;;
55330;SDS011;58851;42.984;20.336;2023-04-25T14:02:34;16.38;;;11.25;;
55330;SDS011;58851;42.984;20.336;2023-04-25T14:05:00;22.17;;;13.32;;
55330;SDS011;58851;42.984;20.336;2023-04-25T14:07:27;30.35;;;20.02;;
55330;SDS011;58851;42.984;20.336;2023-04-25T14:09:52;21.70;;;14.07;;
55330;SDS011;58851;42.984;20.336;2023-04-25T14:12:18;13.32;;;10.07;;
55330;SDS011;58851;42.984;20.336;2023-04-25T14:14:44;37.72;;;24.42;;
55330;SDS011;58851;42.984;20.336;2023-04-25T14:17:10;21.20;;;13.95;;
55330;SDS011;58851;42.984;20.336;2023-04-25T14:19:36;23.73;;;14.25;;
55330;SDS011;58851;42.984;20.336;2023-04-25T14:22:03;12.27;;;8.45;;
55330;SDS011;58851;42.984;20.336;2023-04-25T14:24:29;13.10;;;8.02;;
55330;SDS011;58851;42.984;20.336;2023-04-25T14:26:55;21.38;;;12.35;;